createdAt,value
2023-02-07T00:01:21.776Z,97.73
2023-02-07T00:03:49.062Z,97.95
2023-02-07T00:06:22.399Z,97.94
2023-02-07T00:08:49.909Z,98.38
2023-02-07T00:11:20.208Z,98.53
2023-02-07T00:13:51.352Z,98.15
2023-02-07T00:16:19.289Z,98.06
2023-02-07T00:18:46.670Z,98.45
2023-02-07T00:21:18.414Z,98.18
2023-02-07T00:23:46.388Z,98.32
2023-02-07T00:26:14.661Z,98.14
2023-02-07T00:28:41.545Z,98.03
2023-02-07T00:31:21.027Z,98.63
2023-02-07T00:33:49.328Z,98.30
2023-02-07T00:36:21.937Z,98.36
2023-02-07T00:38:49.077Z,98.32
2023-02-07T00:41:18.571Z,98.17
2023-02-07T00:43:47.097Z,98.18
2023-02-07T00:46:14.120Z,98.08
2023-02-07T00:48:40.693Z,98.48
2023-02-07T00:51:07.723Z,98.20
2023-02-07T00:53:34.624Z,98.26
2023-02-07T00:56:01.138Z,97.97
2023-02-07T00:58:27.680Z,98.30
2023-02-07T01:00:54.239Z,98.37
2023-02-07T01:03:21.028Z,98.14
2023-02-07T01:05:48.194Z,98.03
2023-02-07T01:08:15.602Z,98.13
2023-02-07T01:10:44.260Z,98.32
2023-02-07T01:13:11.819Z,98.25
2023-02-07T01:15:40.554Z,98.11
2023-02-07T01:18:08.563Z,98.32
2023-02-07T01:20:35.063Z,98.31
2023-02-07T01:23:01.962Z,98.88
2023-02-07T01:25:29.069Z,98.96
2023-02-07T01:27:56.104Z,98.51
2023-02-07T01:30:22.753Z,98.52
2023-02-07T01:32:49.817Z,98.77
2023-02-07T01:35:16.776Z,98.54
2023-02-07T01:37:43.351Z,98.69
2023-02-07T01:40:11.811Z,98.90
2023-02-07T01:42:38.687Z,98.80
2023-02-07T01:45:29.706Z,99.07
2023-02-07T01:48:00.891Z,99.12
2023-02-07T01:50:28.017Z,98.74
2023-02-07T01:52:55.614Z,98.90
2023-02-07T01:55:27.449Z,98.88
2023-02-07T01:57:54.192Z,98.68
2023-02-07T02:00:21.986Z,99.18
2023-02-07T02:02:48.622Z,99.39
2023-02-07T02:05:16.814Z,98.97
2023-02-07T02:07:43.473Z,99.04
2023-02-07T02:10:18.507Z,99.19
2023-02-07T02:13:07.478Z,99.02
2023-02-07T02:15:44.708Z,99.12
2023-02-07T02:18:27.374Z,99.40
2023-02-07T02:21:15.613Z,98.97
2023-02-07T02:24:05.996Z,98.91
2023-02-07T02:26:39.311Z,98.71
2023-02-07T02:29:33.311Z,99.14
2023-02-07T02:32:17.787Z,98.87
2023-02-07T02:34:58.487Z,98.93
2023-02-07T02:37:59.244Z,98.98
2023-02-07T02:40:34.681Z,99.21
2023-02-07T02:43:09.442Z,98.86
2023-02-07T02:45:42.419Z,99.08
2023-02-07T02:48:11.711Z,99.08
2023-02-07T02:50:39.348Z,98.97
2023-02-07T02:53:06.110Z,98.66
2023-02-07T02:55:48.301Z,99.32
2023-02-07T02:58:40.342Z,98.88
2023-02-07T03:01:23.688Z,98.99
2023-02-07T03:04:13.502Z,98.77
2023-02-07T03:07:06.745Z,98.64
2023-02-07T03:09:48.835Z,98.86
2023-02-07T03:12:55.636Z,98.91
2023-02-07T03:15:31.104Z,99.02
2023-02-07T03:18:05.378Z,99.14
2023-02-07T03:20:46.223Z,99.23
2023-02-07T03:23:16.059Z,99.19
2023-02-07T03:25:44.516Z,99.16
2023-02-07T03:28:14.504Z,99.05
2023-02-07T03:30:44.063Z,98.94
2023-02-07T03:33:14.079Z,99.22
2023-02-07T03:35:52.499Z,98.95
2023-02-07T03:38:19.711Z,99.04
2023-02-07T03:40:49.329Z,98.94
2023-02-07T03:43:24.788Z,98.38
2023-02-07T03:45:51.504Z,98.79
2023-02-07T03:48:18.150Z,99.11
2023-02-07T03:50:45.136Z,98.81
2023-02-07T03:53:11.649Z,98.71
2023-02-07T03:55:38.459Z,98.98
2023-02-07T03:58:07.357Z,99.13
2023-02-07T04:00:34.366Z,98.94
2023-02-07T04:03:01.050Z,99.05
2023-02-07T04:05:27.586Z,99.19
2023-02-07T04:07:54.027Z,99.24
2023-02-07T04:10:20.584Z,99.10
2023-02-07T04:12:47.032Z,99.00
2023-02-07T04:15:13.700Z,99.10
2023-02-07T04:17:40.317Z,98.72
2023-02-07T04:20:07.967Z,99.21
2023-02-07T04:22:34.634Z,99.29
2023-02-07T04:25:01.432Z,99.19
2023-02-07T04:27:28.082Z,98.81
2023-02-07T04:29:54.688Z,98.93
2023-02-07T04:32:21.176Z,99.11
2023-02-07T04:34:47.742Z,99.02
2023-02-07T04:37:14.330Z,99.00
2023-02-07T04:39:40.873Z,98.99
2023-02-07T04:42:07.640Z,98.83
2023-02-07T04:44:34.827Z,98.86
2023-02-07T04:47:01.304Z,98.76
2023-02-07T04:49:28.020Z,98.77
2023-02-07T04:51:54.520Z,98.94
2023-02-07T04:54:21.163Z,98.89
2023-02-07T04:56:47.666Z,99.36
2023-02-07T04:59:14.165Z,99.01
2023-02-07T05:01:40.662Z,99.09
2023-02-07T05:04:07.228Z,99.26
2023-02-07T05:06:33.711Z,99.16
2023-02-07T05:09:00.300Z,99.35
2023-02-07T05:11:26.934Z,98.79
2023-02-07T05:13:53.433Z,98.87
2023-02-07T05:16:19.972Z,99.16
2023-02-07T05:18:46.531Z,98.91
2023-02-07T05:21:13.056Z,98.91
2023-02-07T05:23:39.546Z,98.87
2023-02-07T05:26:06.008Z,98.75
2023-02-07T05:28:32.607Z,99.23
2023-02-07T05:30:59.297Z,99.46
2023-02-07T05:33:25.896Z,99.49
2023-02-07T05:35:52.363Z,99.49
2023-02-07T05:38:20.252Z,99.41
2023-02-07T05:40:48.146Z,99.45
2023-02-07T05:43:14.850Z,99.47
2023-02-07T05:45:41.711Z,99.33
2023-02-07T05:48:08.506Z,99.69
2023-02-07T05:50:35.084Z,99.65
2023-02-07T05:53:02.928Z,99.24
2023-02-07T05:55:29.535Z,99.20
2023-02-07T05:57:56.076Z,99.42
2023-02-07T06:00:22.724Z,99.42
2023-02-07T06:02:49.307Z,99.26
2023-02-07T06:05:17.845Z,99.05
2023-02-07T06:07:44.389Z,99.18
2023-02-07T06:10:11.490Z,99.02
2023-02-07T06:12:38.271Z,98.81
2023-02-07T06:15:05.405Z,98.90
2023-02-07T06:17:32.283Z,98.85
2023-02-07T06:19:58.847Z,99.15
2023-02-07T06:22:25.374Z,99.11
2023-02-07T06:24:52.214Z,99.16
2023-02-07T06:27:19.043Z,99.15
2023-02-07T06:29:45.656Z,99.20
2023-02-07T06:32:12.099Z,98.96
2023-02-07T06:34:38.608Z,98.92
2023-02-07T06:37:05.120Z,98.90
2023-02-07T06:39:31.609Z,98.90
2023-02-07T06:41:58.150Z,98.93
2023-02-07T06:44:24.686Z,98.70
2023-02-07T06:46:51.173Z,98.97
2023-02-07T06:49:17.664Z,98.93
2023-02-07T06:51:44.287Z,98.83
2023-02-07T06:54:10.940Z,98.62
2023-02-07T06:56:37.985Z,98.73
2023-02-07T06:59:05.098Z,98.66
2023-02-07T07:01:31.968Z,98.65
2023-02-07T07:03:58.694Z,98.79
2023-02-07T07:06:25.256Z,98.41
2023-02-07T07:08:51.884Z,98.49
2023-02-07T07:11:19.014Z,98.58
2023-02-07T07:13:45.711Z,98.54
2023-02-07T07:16:12.408Z,98.43
2023-02-07T07:18:39.275Z,98.14
2023-02-07T07:21:06.636Z,98.40
2023-02-07T07:23:33.355Z,98.59
2023-02-07T07:26:00.001Z,98.51
2023-02-07T07:28:26.533Z,98.69
2023-02-07T07:30:53.240Z,98.81
2023-02-07T07:33:19.946Z,98.62
2023-02-07T07:35:46.472Z,98.74
2023-02-07T07:38:13.127Z,98.99
2023-02-07T07:40:39.902Z,98.69
2023-02-07T07:43:06.634Z,98.67
2023-02-07T07:45:33.126Z,98.44
2023-02-07T07:47:59.717Z,98.57
2023-02-07T07:50:26.321Z,98.35
2023-02-07T07:52:52.883Z,98.21
2023-02-07T07:55:19.368Z,98.42
2023-02-07T07:57:45.847Z,97.82
2023-02-07T08:00:13.154Z,97.73
2023-02-07T08:02:40.272Z,97.90
2023-02-07T08:05:06.955Z,97.83
2023-02-07T08:07:33.753Z,97.16
2023-02-07T08:10:00.391Z,96.89
2023-02-07T08:12:26.953Z,96.86
2023-02-07T08:14:53.455Z,96.81
2023-02-07T08:17:20.025Z,96.71
2023-02-07T08:19:46.562Z,96.55
2023-02-07T08:22:14.693Z,96.46
2023-02-07T08:24:41.953Z,96.31
2023-02-07T08:27:08.687Z,96.27
2023-02-07T08:29:35.170Z,95.99
2023-02-07T08:32:01.923Z,96.25
2023-02-07T08:34:29.014Z,96.38
2023-02-07T08:36:55.624Z,96.49
2023-02-07T08:39:22.255Z,96.50
2023-02-07T08:41:48.721Z,96.98
2023-02-07T08:44:15.547Z,97.17
2023-02-07T08:46:42.681Z,97.28
2023-02-07T08:49:09.193Z,97.57
2023-02-07T08:51:35.724Z,97.19
2023-02-07T08:54:02.234Z,97.41
2023-02-07T08:56:28.706Z,97.39
2023-02-07T08:58:55.238Z,97.68
2023-02-07T09:01:21.876Z,97.66
2023-02-07T09:03:48.483Z,97.71
2023-02-07T09:06:14.964Z,98.00
2023-02-07T09:08:41.797Z,98.00
2023-02-07T09:11:09.586Z,97.87
2023-02-07T09:13:36.909Z,97.62
2023-02-07T09:16:03.468Z,97.45
2023-02-07T09:18:31.077Z,97.70
2023-02-07T09:20:57.760Z,97.81
2023-02-07T09:23:24.386Z,97.98
2023-02-07T09:25:52.751Z,98.03
2023-02-07T09:28:20.348Z,97.92
2023-02-07T09:30:47.769Z,97.84
2023-02-07T09:33:15.702Z,97.57
2023-02-07T09:35:46.377Z,98.05
2023-02-07T09:38:22.214Z,97.92
2023-02-07T09:40:51.250Z,97.94
2023-02-07T09:43:44.732Z,98.02
2023-02-07T09:46:22.478Z,97.94
2023-02-07T09:48:56.042Z,97.74
2023-02-07T09:51:24.217Z,97.75
2023-02-07T09:53:54.914Z,97.58
2023-02-07T09:56:25.478Z,97.26
2023-02-07T09:59:02.452Z,97.59
2023-02-07T10:01:41.264Z,97.21
2023-02-07T10:04:21.723Z,97.05
2023-02-07T10:06:52.686Z,96.90
2023-02-07T10:09:23.920Z,96.86
2023-02-07T10:11:59.669Z,96.47
2023-02-07T10:14:44.436Z,96.36
2023-02-07T10:17:35.788Z,96.32
2023-02-07T10:20:40.127Z,96.08
2023-02-07T10:23:15.872Z,95.82
2023-02-07T10:25:51.825Z,95.20
2023-02-07T10:28:39.974Z,95.68
2023-02-07T10:31:16.434Z,94.74
2023-02-07T10:33:58.309Z,94.33
2023-02-07T10:36:29.669Z,94.29
2023-02-07T10:39:09.375Z,94.46
2023-02-07T10:41:39.528Z,93.86
2023-02-07T10:44:09.982Z,93.82
2023-02-07T10:46:38.565Z,92.83
2023-02-07T10:49:05.175Z,92.51
2023-02-07T10:51:34.712Z,92.50
2023-02-07T10:54:13.689Z,91.25
2023-02-07T10:56:43.479Z,90.96
2023-02-07T10:59:31.357Z,91.00
2023-02-07T11:01:58.042Z,90.66
2023-02-07T11:04:44.924Z,89.74
2023-02-07T11:07:15.607Z,88.89
2023-02-07T11:09:42.592Z,88.11
2023-02-07T11:12:20.399Z,87.29
2023-02-07T11:15:03.534Z,86.64
2023-02-07T11:17:30.300Z,85.79
2023-02-07T11:20:02.492Z,85.20
2023-02-07T11:22:29.312Z,84.44
2023-02-07T11:25:03.740Z,84.25
2023-02-07T11:27:37.755Z,83.52
2023-02-07T11:30:09.052Z,83.40
2023-02-07T11:32:38.475Z,83.30
2023-02-07T11:35:09.539Z,83.08
2023-02-07T11:37:38.222Z,82.11
2023-02-07T11:40:21.471Z,82.09
2023-02-07T11:42:49.404Z,81.17
2023-02-07T11:45:21.454Z,80.25
2023-02-07T11:47:52.710Z,80.13
2023-02-07T11:50:23.856Z,80.42
2023-02-07T11:52:57.149Z,80.04
2023-02-07T11:55:30.261Z,80.44
2023-02-07T11:57:57.957Z,79.85
2023-02-07T12:00:28.488Z,79.49
2023-02-07T12:03:22.577Z,79.17
2023-02-07T12:05:53.442Z,78.55
2023-02-07T12:08:24.294Z,77.96
2023-02-07T12:10:55.195Z,78.32
2023-02-07T12:13:35.354Z,77.83
2023-02-07T12:16:17.524Z,77.24
2023-02-07T12:19:07.297Z,77.20
2023-02-07T12:21:44.770Z,77.62
2023-02-07T12:24:16.914Z,76.63
2023-02-07T12:26:50.402Z,76.84
2023-02-07T12:29:36.555Z,77.01
2023-02-07T12:32:13.713Z,75.89
2023-02-07T12:35:03.704Z,75.98
2023-02-07T12:37:49.407Z,75.43
2023-02-07T12:40:41.839Z,75.21
2023-02-07T12:43:38.133Z,74.36
2023-02-07T12:46:07.469Z,73.13
2023-02-07T12:49:22.129Z,74.60
2023-02-07T12:52:32.351Z,73.83
2023-02-07T12:55:12.634Z,73.27
2023-02-07T12:58:16.801Z,73.29
2023-02-07T13:01:08.240Z,72.84
2023-02-07T13:03:53.337Z,73.14
2023-02-07T13:06:37.406Z,73.65
2023-02-07T13:09:11.799Z,73.49
2023-02-07T13:11:43.349Z,71.23
2023-02-07T13:14:24.849Z,71.96
2023-02-07T13:17:13.080Z,71.56
2023-02-07T13:20:00.781Z,71.60
2023-02-07T13:22:29.999Z,70.49
2023-02-07T13:24:57.885Z,72.07
2023-02-07T13:27:27.691Z,71.76
2023-02-07T13:29:54.825Z,71.19
2023-02-07T13:32:24.486Z,70.34
2023-02-07T13:35:11.379Z,70.02
2023-02-07T13:37:51.320Z,72.24
2023-02-07T13:40:37.660Z,72.28
2023-02-07T13:43:26.733Z,71.21
2023-02-07T13:46:20.354Z,70.46
2023-02-07T13:48:58.776Z,71.24
2023-02-07T13:51:46.505Z,70.74
2023-02-07T13:54:47.064Z,70.91
2023-02-07T13:57:58.548Z,70.04
2023-02-07T14:00:36.324Z,70.89
2023-02-07T14:03:06.432Z,71.54
2023-02-07T14:05:42.632Z,71.75
2023-02-07T14:08:18.140Z,72.36
2023-02-07T14:10:52.723Z,71.74
2023-02-07T14:13:29.016Z,71.63
2023-02-07T14:15:55.575Z,73.10
2023-02-07T14:18:34.743Z,72.90
2023-02-07T14:21:26.159Z,72.68
2023-02-07T14:24:31.969Z,72.43
2023-02-07T14:27:01.149Z,72.85
2023-02-07T14:29:30.938Z,74.02
2023-02-07T14:32:22.336Z,72.19
2023-02-07T14:35:06.581Z,72.87
2023-02-07T14:38:03.053Z,73.08
2023-02-07T14:41:08.491Z,72.29
2023-02-07T14:44:07.445Z,71.82
2023-02-07T14:46:38.435Z,70.31
2023-02-07T14:49:19.949Z,70.67
2023-02-07T14:52:01.218Z,72.34
2023-02-07T14:54:33.649Z,72.64
2023-02-07T14:57:21.476Z,70.75
2023-02-07T15:00:13.468Z,71.12
2023-02-07T15:02:41.110Z,72.34
2023-02-07T15:05:13.651Z,72.10
2023-02-07T15:07:43.488Z,71.05
2023-02-07T15:10:37.910Z,70.17
2023-02-07T15:13:15.160Z,70.21
2023-02-07T15:15:52.275Z,70.80
2023-02-07T15:18:22.202Z,71.38
2023-02-07T15:20:53.132Z,71.36
2023-02-07T15:23:20.748Z,71.24
2023-02-07T15:25:47.592Z,70.66
2023-02-07T15:28:27.557Z,71.40
2023-02-07T15:31:15.111Z,71.94
2023-02-07T15:33:49.746Z,71.65
2023-02-07T15:36:40.531Z,71.20
2023-02-07T15:39:15.329Z,71.47
2023-02-07T15:41:44.174Z,71.55
2023-02-07T15:44:30.266Z,71.66
2023-02-07T15:46:59.641Z,71.39
2023-02-07T15:49:41.123Z,71.67
2023-02-07T15:52:26.226Z,71.26
2023-02-07T15:54:54.392Z,71.61
2023-02-07T15:57:29.060Z,71.70
2023-02-07T16:00:00.737Z,72.76
2023-02-07T16:02:33.006Z,72.64
2023-02-07T16:04:59.716Z,72.90
2023-02-07T16:07:27.212Z,73.46
2023-02-07T16:09:54.122Z,73.45
2023-02-07T16:12:42.364Z,73.49
2023-02-07T16:15:57.941Z,74.31
2023-02-07T16:18:48.170Z,74.66
2023-02-07T16:21:20.780Z,74.80
2023-02-07T16:23:49.732Z,75.11
2023-02-07T16:26:19.977Z,75.61
2023-02-07T16:28:47.227Z,76.05
2023-02-07T16:31:13.949Z,76.41
2023-02-07T16:33:40.567Z,77.52
2023-02-07T16:36:13.625Z,77.61
2023-02-07T16:38:40.113Z,78.26
2023-02-07T16:41:06.796Z,78.93
2023-02-07T16:43:39.834Z,79.20
2023-02-07T16:46:06.694Z,79.96
2023-02-07T16:48:33.259Z,80.76
2023-02-07T16:51:01.382Z,81.30
2023-02-07T16:53:28.355Z,82.08
2023-02-07T16:55:56.943Z,82.34
2023-02-07T16:58:30.104Z,82.61
2023-02-07T17:00:56.939Z,82.95
2023-02-07T17:03:23.590Z,82.85
2023-02-07T17:05:50.727Z,83.25
2023-02-07T17:08:22.734Z,83.55
2023-02-07T17:11:00.222Z,83.64
2023-02-07T17:13:26.987Z,84.22
2023-02-07T17:15:53.705Z,84.45
2023-02-07T17:18:23.155Z,84.71
2023-02-07T17:20:49.902Z,84.80
2023-02-07T17:23:16.972Z,84.84
2023-02-07T17:25:44.287Z,84.99
2023-02-07T17:28:14.519Z,85.63
2023-02-07T17:30:42.140Z,85.41
2023-02-07T17:33:10.416Z,85.86
2023-02-07T17:35:38.032Z,86.13
2023-02-07T17:38:04.648Z,85.83
2023-02-07T17:40:34.121Z,86.23
2023-02-07T17:43:01.082Z,86.08
2023-02-07T17:45:28.813Z,86.86
2023-02-07T17:47:58.650Z,87.05
2023-02-07T17:50:29.490Z,87.03
2023-02-07T17:53:01.540Z,87.25
2023-02-07T17:55:29.954Z,87.25
2023-02-07T17:57:57.053Z,87.56
2023-02-07T18:00:34.002Z,87.72
2023-02-07T18:03:00.687Z,87.78
2023-02-07T18:05:27.288Z,87.96
2023-02-07T18:07:54.254Z,88.11
2023-02-07T18:10:32.506Z,88.54
2023-02-07T18:12:59.240Z,88.35
2023-02-07T18:15:27.526Z,88.42
2023-02-07T18:17:54.892Z,88.49
2023-02-07T18:20:28.435Z,88.54
2023-02-07T18:22:56.930Z,88.79
2023-02-07T18:25:25.403Z,88.87
2023-02-07T18:27:52.306Z,88.99
2023-02-07T18:30:20.952Z,88.92
2023-02-07T18:32:48.424Z,89.09
2023-02-07T18:35:15.677Z,89.56
2023-02-07T18:37:42.365Z,89.62
2023-02-07T18:40:10.398Z,89.79
2023-02-07T18:42:37.153Z,89.97
2023-02-07T18:45:03.930Z,89.94
2023-02-07T18:47:33.753Z,89.61
2023-02-07T18:50:00.689Z,90.02
2023-02-07T18:52:27.238Z,90.15
2023-02-07T18:54:53.768Z,90.58
2023-02-07T18:57:20.295Z,90.26
2023-02-07T18:59:46.912Z,90.49
2023-02-07T19:02:13.651Z,90.66
2023-02-07T19:04:40.862Z,90.83
2023-02-07T19:07:07.522Z,91.06
2023-02-07T19:09:34.203Z,91.27
2023-02-07T19:12:01.000Z,91.18
2023-02-07T19:14:31.132Z,91.38
2023-02-07T19:16:58.595Z,91.59
2023-02-07T19:19:29.421Z,91.08
2023-02-07T19:21:56.994Z,91.59
2023-02-07T19:24:24.771Z,91.61
2023-02-07T19:26:56.055Z,91.64
2023-02-07T19:29:28.737Z,91.68
2023-02-07T19:32:07.928Z,91.73
2023-02-07T19:34:35.692Z,92.50
2023-02-07T19:37:02.462Z,92.11
2023-02-07T19:39:29.094Z,92.16
2023-02-07T19:41:55.594Z,92.16
2023-02-07T19:44:22.486Z,92.33
2023-02-07T19:46:49.028Z,92.42
2023-02-07T19:49:16.055Z,92.37
2023-02-07T19:51:43.232Z,92.35
2023-02-07T19:54:10.282Z,92.31
2023-02-07T19:56:37.616Z,92.48
2023-02-07T19:59:06.766Z,92.91
2023-02-07T20:01:35.594Z,93.01
2023-02-07T20:04:02.367Z,93.01
2023-02-07T20:06:32.954Z,92.92
2023-02-07T20:09:01.416Z,92.98
2023-02-07T20:11:28.875Z,93.11
2023-02-07T20:14:02.788Z,93.20
2023-02-07T20:16:32.224Z,93.35
2023-02-07T20:18:59.436Z,93.04
2023-02-07T20:21:30.609Z,93.35
2023-02-07T20:23:58.097Z,93.67
2023-02-07T20:26:38.418Z,93.51
2023-02-07T20:29:09.439Z,94.04
2023-02-07T20:31:37.129Z,93.89
2023-02-07T20:34:03.978Z,94.24
2023-02-07T20:36:31.809Z,94.14
2023-02-07T20:38:59.887Z,94.08
2023-02-07T20:41:31.399Z,94.58
2023-02-07T20:44:05.084Z,94.58
2023-02-07T20:46:34.636Z,94.75
2023-02-07T20:49:05.116Z,94.71
2023-02-07T20:51:32.034Z,94.39
2023-02-07T20:54:00.740Z,94.85
2023-02-07T20:56:28.288Z,94.44
2023-02-07T20:58:55.194Z,94.50
2023-02-07T21:01:25.555Z,94.76
2023-02-07T21:03:54.682Z,94.98
2023-02-07T21:06:24.685Z,94.57
2023-02-07T21:08:59.481Z,94.89
2023-02-07T21:11:34.063Z,94.77
2023-02-07T21:14:02.069Z,94.84
2023-02-07T21:16:30.866Z,94.69
2023-02-07T21:18:57.943Z,94.77
2023-02-07T21:21:24.898Z,94.79
2023-02-07T21:23:52.928Z,94.83
2023-02-07T21:26:20.922Z,95.46
2023-02-07T21:28:47.900Z,95.24
2023-02-07T21:31:20.794Z,95.86
2023-02-07T21:33:49.655Z,95.19
2023-02-07T21:36:19.270Z,95.51
2023-02-07T21:38:47.535Z,95.40
2023-02-07T21:41:16.362Z,95.60
2023-02-07T21:43:43.013Z,95.79
2023-02-07T21:46:18.067Z,95.47
2023-02-07T21:48:46.339Z,95.53
2023-02-07T21:51:15.599Z,95.74
2023-02-07T21:53:42.092Z,95.58
2023-02-07T21:56:12.204Z,95.91
2023-02-07T21:58:39.572Z,95.94
2023-02-07T22:01:15.080Z,95.82
2023-02-07T22:03:44.352Z,96.05
2023-02-07T22:06:11.714Z,95.94
2023-02-07T22:08:39.018Z,95.88
2023-02-07T22:11:08.414Z,96.43
2023-02-07T22:13:36.314Z,96.09
2023-02-07T22:16:03.494Z,96.16
2023-02-07T22:18:30.121Z,95.75
2023-02-07T22:21:03.925Z,95.90
2023-02-07T22:23:30.424Z,96.07
2023-02-07T22:25:56.886Z,95.97
2023-02-07T22:28:23.789Z,96.48
2023-02-07T22:30:50.510Z,96.27
2023-02-07T22:33:17.117Z,96.21
2023-02-07T22:35:43.980Z,96.20
2023-02-07T22:38:12.616Z,96.32
2023-02-07T22:40:41.151Z,96.38
2023-02-07T22:43:12.646Z,96.52
2023-02-07T22:45:39.961Z,96.49
2023-02-07T22:48:06.769Z,96.82
2023-02-07T22:50:33.435Z,96.52
2023-02-07T22:52:59.942Z,96.51
2023-02-07T22:55:26.467Z,97.10
2023-02-07T22:57:52.989Z,96.74
2023-02-07T23:00:20.266Z,96.58
2023-02-07T23:02:47.126Z,96.66
2023-02-07T23:05:13.641Z,96.64
2023-02-07T23:07:40.207Z,96.88
2023-02-07T23:10:08.273Z,96.88
2023-02-07T23:12:35.236Z,96.50
2023-02-07T23:15:01.808Z,96.70
2023-02-07T23:17:28.942Z,96.68
2023-02-07T23:19:55.968Z,96.58
2023-02-07T23:22:22.652Z,96.67
2023-02-07T23:24:49.375Z,96.43
2023-02-07T23:27:16.305Z,96.58
2023-02-07T23:29:42.789Z,96.47
2023-02-07T23:32:09.225Z,96.58
2023-02-07T23:34:35.727Z,96.77
2023-02-07T23:37:02.456Z,96.78
2023-02-07T23:39:29.042Z,96.58
2023-02-07T23:41:57.953Z,96.47
2023-02-07T23:44:25.016Z,96.52
2023-02-07T23:46:51.484Z,96.70
2023-02-07T23:49:17.922Z,96.14
2023-02-07T23:51:45.616Z,96.76
2023-02-07T23:54:13.080Z,96.52
2023-02-07T23:56:39.734Z,96.34
2023-02-07T23:59:06.957Z,96.11
